createdAt,value
2022-08-26T00:04:35.101Z,48.54
2022-08-26T00:09:40.158Z,48.48
2022-08-26T00:14:42.184Z,48.82
2022-08-26T00:19:43.825Z,48.67
2022-08-26T00:24:48.093Z,49.19
2022-08-26T00:29:52.571Z,49.11
2022-08-26T00:34:55.012Z,49.09
2022-08-26T00:39:56.764Z,49.46
2022-08-26T00:45:02.603Z,49.55
2022-08-26T00:50:16.120Z,49.16
2022-08-26T00:55:37.856Z,49.78
2022-08-26T01:00:39.954Z,49.73
2022-08-26T01:05:43.000Z,49.72
2022-08-26T01:10:45.791Z,49.92
2022-08-26T01:15:54.054Z,50.15
2022-08-26T01:21:33.740Z,50.74
2022-08-26T01:26:43.097Z,51.07
2022-08-26T01:31:52.923Z,52.09
2022-08-26T01:37:07.004Z,51.85
2022-08-26T01:42:14.707Z,51.58
2022-08-26T01:47:17.941Z,51.81
2022-08-26T01:52:28.053Z,51.80
2022-08-26T01:57:31.075Z,52.18
2022-08-26T02:02:32.722Z,52.00
2022-08-26T02:07:34.749Z,51.99
2022-08-26T02:12:37.246Z,52.12
2022-08-26T02:17:44.719Z,52.76
2022-08-26T02:22:47.601Z,52.60
2022-08-26T02:27:49.320Z,52.70
2022-08-26T02:32:51.901Z,52.19
2022-08-26T02:37:53.578Z,52.33
2022-08-26T02:42:56.019Z,52.51
2022-08-26T02:47:59.697Z,52.37
2022-08-26T02:53:01.943Z,52.83
2022-08-26T02:58:04.476Z,52.87
2022-08-26T03:03:06.570Z,52.84
2022-08-26T03:08:11.769Z,53.55
2022-08-26T03:13:13.910Z,53.60
2022-08-26T03:18:16.107Z,53.89
2022-08-26T03:23:18.595Z,53.53
2022-08-26T03:28:20.294Z,53.54
2022-08-26T03:33:22.393Z,53.45
2022-08-26T03:38:27.110Z,53.27
2022-08-26T03:43:28.756Z,53.44
2022-08-26T03:48:30.386Z,53.65
2022-08-26T03:53:31.985Z,53.66
2022-08-26T03:58:38.033Z,53.30
2022-08-26T04:04:00.018Z,53.96
2022-08-26T04:09:06.518Z,54.28
2022-08-26T04:14:13.473Z,54.28
2022-08-26T04:19:16.735Z,54.41
2022-08-26T04:24:20.640Z,54.82
2022-08-26T04:29:25.421Z,55.52
2022-08-26T04:34:28.974Z,55.15
2022-08-26T04:39:31.154Z,55.65
2022-08-26T04:44:35.866Z,56.13
2022-08-26T04:49:38.311Z,55.57
2022-08-26T04:54:42.008Z,55.07
2022-08-26T04:59:43.772Z,55.12
2022-08-26T05:04:45.504Z,55.67
2022-08-26T05:09:47.105Z,55.91
2022-08-26T05:14:48.805Z,56.05
2022-08-26T05:19:50.755Z,55.83
2022-08-26T05:24:52.371Z,55.35
2022-08-26T05:29:57.424Z,55.05
2022-08-26T05:34:59.579Z,54.45
2022-08-26T05:40:04.861Z,53.92
2022-08-26T05:45:07.337Z,53.76
2022-08-26T05:50:09.380Z,54.09
2022-08-26T05:55:11.031Z,55.54
2022-08-26T06:00:15.457Z,55.72
2022-08-26T06:05:17.693Z,55.70
2022-08-26T06:10:32.243Z,55.30
2022-08-26T06:15:35.624Z,54.02
2022-08-26T06:20:37.759Z,53.95
2022-08-26T06:25:39.543Z,52.83
2022-08-26T06:30:41.746Z,52.59
2022-08-26T06:35:43.755Z,51.95
2022-08-26T06:40:50.998Z,51.42
2022-08-26T06:46:01.940Z,51.13
2022-08-26T06:51:13.224Z,50.92
2022-08-26T06:56:17.995Z,50.83
2022-08-26T07:01:24.430Z,50.41
2022-08-26T07:06:28.298Z,49.29
2022-08-26T07:11:30.795Z,49.48
2022-08-26T07:16:33.231Z,49.50
2022-08-26T07:21:34.864Z,49.13
2022-08-26T07:26:36.474Z,49.09
2022-08-26T07:31:42.419Z,47.89
2022-08-26T07:36:44.941Z,47.16
2022-08-26T07:41:47.928Z,45.92
2022-08-26T07:46:53.074Z,44.29
2022-08-26T07:51:55.379Z,43.08
2022-08-26T07:57:00.008Z,42.34
2022-08-26T08:02:01.965Z,40.99
2022-08-26T08:07:03.676Z,40.07
2022-08-26T08:12:14.274Z,39.54
2022-08-26T08:17:16.474Z,39.85
2022-08-26T08:22:19.687Z,40.22
2022-08-26T08:27:23.833Z,39.07
2022-08-26T08:32:25.880Z,38.87
2022-08-26T08:37:27.481Z,38.32
2022-08-26T08:42:32.692Z,38.22
2022-08-26T08:47:42.964Z,37.01
2022-08-26T08:52:50.947Z,36.26
2022-08-26T08:58:16.460Z,35.91
2022-08-26T09:03:30.827Z,35.93
2022-08-26T09:08:36.946Z,36.31
2022-08-26T09:13:39.855Z,36.16
2022-08-26T09:18:45.981Z,36.90
2022-08-26T09:23:49.628Z,37.19
2022-08-26T09:29:00.770Z,37.31
2022-08-26T09:34:23.179Z,36.65
2022-08-26T09:39:27.405Z,36.26
2022-08-26T09:44:29.971Z,36.06
2022-08-26T09:49:39.901Z,35.29
2022-08-26T09:54:46.028Z,34.83
2022-08-26T09:59:49.768Z,35.97
2022-08-26T10:04:56.641Z,35.92
2022-08-26T10:09:58.331Z,36.07
2022-08-26T10:15:08.286Z,35.77
2022-08-26T10:20:28.867Z,35.85
2022-08-26T10:25:43.263Z,36.19
2022-08-26T10:30:50.974Z,35.96
2022-08-26T10:35:59.777Z,36.23
2022-08-26T10:41:10.786Z,35.71
2022-08-26T10:46:19.752Z,36.17
2022-08-26T10:51:29.723Z,36.13
2022-08-26T10:57:03.706Z,36.19
2022-08-26T11:02:15.501Z,36.44
2022-08-26T11:07:37.683Z,36.39
2022-08-26T11:12:39.985Z,36.68
2022-08-26T11:17:44.728Z,36.40
2022-08-26T11:22:47.883Z,36.49
2022-08-26T11:27:52.410Z,36.59
2022-08-26T11:32:57.880Z,36.31
2022-08-26T11:38:22.017Z,35.87
2022-08-26T11:43:30.235Z,36.30
2022-08-26T11:48:34.955Z,36.43
2022-08-26T11:53:43.132Z,35.83
2022-08-26T11:58:46.913Z,35.84
2022-08-26T12:03:51.275Z,35.93
2022-08-26T12:08:55.742Z,35.84
2022-08-26T12:14:04.947Z,35.62
2022-08-26T12:19:27.606Z,35.69
2022-08-26T12:24:29.939Z,35.85
2022-08-26T12:29:31.668Z,35.89
2022-08-26T12:34:33.388Z,36.04
2022-08-26T12:39:37.519Z,36.53
2022-08-26T12:44:53.826Z,35.83
2022-08-26T12:50:25.465Z,36.33
2022-08-26T12:55:52.852Z,36.50
2022-08-26T13:01:14.739Z,35.97
2022-08-26T13:06:22.429Z,36.17
2022-08-26T13:11:31.613Z,35.93
2022-08-26T13:16:33.968Z,35.65
2022-08-26T13:21:49.867Z,36.25
2022-08-26T13:26:51.878Z,36.41
2022-08-26T13:31:53.703Z,36.81
2022-08-26T13:36:56.493Z,37.02
2022-08-26T13:41:58.267Z,37.20
2022-08-26T13:46:59.868Z,37.43
2022-08-26T13:52:03.742Z,37.55
2022-08-26T13:57:06.109Z,37.77
2022-08-26T14:02:07.726Z,37.17
2022-08-26T14:07:11.624Z,37.04
2022-08-26T14:12:13.242Z,36.87
2022-08-26T14:17:21.854Z,36.84
2022-08-26T14:22:23.581Z,37.27
2022-08-26T14:27:25.498Z,37.69
2022-08-26T14:32:28.841Z,38.22
2022-08-26T14:37:30.463Z,38.34
2022-08-26T14:42:32.449Z,38.18
2022-08-26T14:47:34.046Z,37.99
2022-08-26T14:52:55.663Z,38.21
2022-08-26T14:57:57.302Z,38.19
2022-08-26T15:02:59.170Z,38.08
2022-08-26T15:08:02.320Z,38.25
2022-08-26T15:13:04.275Z,38.03
2022-08-26T15:18:06.164Z,38.59
2022-08-26T15:23:08.178Z,38.82
2022-08-26T15:28:10.294Z,38.93
2022-08-26T15:33:15.340Z,39.29
2022-08-26T15:38:18.086Z,39.45
2022-08-26T15:43:28.774Z,39.43
2022-08-26T15:48:31.058Z,39.77
2022-08-26T15:53:34.844Z,39.74
2022-08-26T15:58:36.737Z,40.11
2022-08-26T16:03:38.615Z,40.51
2022-08-26T16:08:40.450Z,40.91
2022-08-26T16:13:42.084Z,41.15
2022-08-26T16:18:44.169Z,41.85
2022-08-26T16:23:46.676Z,41.91
2022-08-26T16:28:48.412Z,42.22
2022-08-26T16:33:50.071Z,42.42
2022-08-26T16:38:55.270Z,42.32
2022-08-26T16:43:57.330Z,42.86
2022-08-26T16:48:59.790Z,43.09
2022-08-26T16:54:02.753Z,43.11
2022-08-26T16:59:06.223Z,43.09
2022-08-26T17:04:07.907Z,43.29
2022-08-26T17:09:09.597Z,43.58
2022-08-26T17:14:11.616Z,43.60
2022-08-26T17:19:15.891Z,43.57
2022-08-26T17:24:17.577Z,44.04
2022-08-26T17:29:20.194Z,44.42
2022-08-26T17:34:23.167Z,44.15
2022-08-26T17:39:24.905Z,44.49
2022-08-26T17:44:26.702Z,45.01
2022-08-26T17:49:28.752Z,45.19
2022-08-26T17:54:30.360Z,45.25
2022-08-26T17:59:35.533Z,45.79
2022-08-26T18:04:37.150Z,45.79
2022-08-26T18:09:38.945Z,46.17
2022-08-26T18:14:40.580Z,46.50
2022-08-26T18:24:55.408Z,46.67
2022-08-26T18:30:01.554Z,46.90
2022-08-26T18:35:03.722Z,46.85
2022-08-26T18:40:07.679Z,47.34
2022-08-26T18:45:10.127Z,47.58
2022-08-26T18:50:18.401Z,47.83
2022-08-26T18:55:20.093Z,48.08
2022-08-26T19:00:21.744Z,48.44
2022-08-26T19:05:23.410Z,48.24
2022-08-26T19:10:26.396Z,48.47
2022-08-26T19:15:28.017Z,48.62
2022-08-26T19:20:29.652Z,48.85
2022-08-26T19:25:31.371Z,48.89
2022-08-26T19:30:33.009Z,48.93
2022-08-26T19:35:35.681Z,49.00
2022-08-26T19:40:38.576Z,48.99
2022-08-26T19:45:40.391Z,49.10
2022-08-26T19:50:42.339Z,48.99
2022-08-26T19:55:43.965Z,48.91
2022-08-26T20:00:45.759Z,49.09
2022-08-26T20:05:47.492Z,49.13
2022-08-26T20:10:50.238Z,49.00
2022-08-26T20:15:51.882Z,49.44
2022-08-26T20:21:12.271Z,49.91
2022-08-26T20:26:14.090Z,49.79
2022-08-26T20:31:16.674Z,50.15
2022-08-26T20:36:20.533Z,50.13
2022-08-26T20:41:25.417Z,50.11
2022-08-26T20:46:27.236Z,50.26
2022-08-26T20:51:29.157Z,50.14
2022-08-26T20:56:30.848Z,50.34
2022-08-26T21:01:35.020Z,50.35
2022-08-26T21:06:38.324Z,50.36
2022-08-26T21:11:41.263Z,50.71
2022-08-26T21:16:43.470Z,50.81
2022-08-26T21:21:47.836Z,50.64
2022-08-26T21:26:49.887Z,50.90
2022-08-26T21:31:51.683Z,51.48
2022-08-26T21:36:54.272Z,51.63
2022-08-26T21:41:55.971Z,51.45
2022-08-26T21:46:57.584Z,51.45
2022-08-26T21:52:00.436Z,51.90
2022-08-26T21:57:02.597Z,52.22
2022-08-26T22:02:07.800Z,52.12
2022-08-26T22:07:09.815Z,51.83
2022-08-26T22:12:12.210Z,52.08
2022-08-26T22:17:13.897Z,51.88
2022-08-26T22:22:15.675Z,51.89
2022-08-26T22:27:17.606Z,52.10
2022-08-26T22:32:19.210Z,52.45
2022-08-26T22:37:20.865Z,52.35
2022-08-26T22:42:22.464Z,52.20
2022-08-26T22:47:24.142Z,52.20
2022-08-26T22:52:25.838Z,52.29
2022-08-26T22:57:27.862Z,52.42
2022-08-26T23:02:29.470Z,52.37
2022-08-26T23:07:31.077Z,52.62
2022-08-26T23:12:33.529Z,52.54
2022-08-26T23:17:36.188Z,52.53
2022-08-26T23:22:37.968Z,52.38
2022-08-26T23:27:42.063Z,52.11
2022-08-26T23:32:43.674Z,51.82
2022-08-26T23:37:48.132Z,51.71
2022-08-26T23:42:51.962Z,52.08
2022-08-26T23:47:54.173Z,51.90
2022-08-26T23:53:08.800Z,51.97
2022-08-26T23:58:11.690Z,52.01
